Time;durP1;ratioP1;P1;durP2;ratioP2;P2;SDS_P1;SDS_P2;PMS_P1;PMS_P2;Temp;Humidity;BMP_temperature;BMP_pressure;BME280_temperature;BME280_humidity;BME280_pressure;Samples;Min_cycle;Max_cycle;Signal;HPM_P1;HPM_P2
2022/06/08 00:00:10;;;;;;;13.65;12.15;;;;;;;;;;5015111;28;92851;-69
2022/06/08 00:02:36;;;;;;;19.08;12.05;;;;;;;;;;5012801;28;92552;-69
2022/06/08 00:05:03;;;;;;;21.58;14.50;;;;;;;;;;5012758;28;92450;-69
2022/06/08 00:07:30;;;;;;;18.52;14.68;;;;;;;;;;5011829;28;94052;-69
2022/06/08 00:09:56;;;;;;;23.92;13.95;;;;;;;;;;5012587;28;94406;-69
2022/06/08 00:12:23;;;;;;;17.85;14.75;;;;;;;;;;5018455;28;91744;-70
2022/06/08 00:14:49;;;;;;;19.45;14.80;;;;;;;;;;5011767;28;93973;-70
2022/06/08 00:17:15;;;;;;;22.60;15.32;;;;;;;;;;5012203;28;93290;-70
2022/06/08 00:19:42;;;;;;;18.20;15.40;;;;;;;;;;5010180;28;95361;-70
2022/06/08 00:22:08;;;;;;;19.20;16.10;;;;;;;;;;5015090;28;96499;-70
2022/06/08 00:24:35;;;;;;;22.80;16.90;;;;;;;;;;5012164;28;92537;-70
2022/06/08 00:27:01;;;;;;;22.85;17.23;;;;;;;;;;5011779;28;94043;-70
2022/06/08 00:29:28;;;;;;;21.77;17.30;;;;;;;;;;5010742;28;95813;-70
2022/06/08 00:31:55;;;;;;;21.88;17.13;;;;;;;;;;5010850;28;94120;-70
2022/06/08 00:34:22;;;;;;;21.77;17.50;;;;;;;;;;5012040;28;92918;-70
2022/06/08 00:36:48;;;;;;;30.30;18.23;;;;;;;;;;5010838;28;93340;-70
2022/06/08 00:39:15;;;;;;;29.25;20.38;;;;;;;;;;5012136;28;92578;-70
2022/06/08 00:41:48;;;;;;;31.77;19.70;;;;;;;;;;5013233;28;93255;-70
2022/06/08 00:44:25;;;;;;;26.15;18.85;;;;;;;;;;5011084;28;95280;-70
2022/06/08 00:46:52;;;;;;;24.67;18.25;;;;;;;;;;5010992;28;96444;-70
2022/06/08 00:49:23;;;;;;;25.40;19.65;;;;;;;;;;5014710;28;92694;-70
2022/06/08 00:51:50;;;;;;;24.23;19.23;;;;;;;;;;5014363;28;93209;-70
2022/06/08 00:54:19;;;;;;;23.17;18.45;;;;;;;;;;5015883;28;93457;-70
2022/06/08 00:56:50;;;;;;;24.88;19.10;;;;;;;;;;5014673;28;93081;-70
2022/06/08 00:59:16;;;;;;;25.60;19.33;;;;;;;;;;5014330;28;92576;-70
2022/06/08 01:01:43;;;;;;;28.83;19.45;;;;;;;;;;5016362;28;93007;-70
2022/06/08 01:04:15;;;;;;;25.27;19.48;;;;;;;;;;5016689;28;93732;-70
2022/06/08 01:06:49;;;;;;;24.08;19.70;;;;;;;;;;5013998;28;94136;-70
2022/06/08 01:09:18;;;;;;;26.98;19.67;;;;;;;;;;5011609;28;98625;-70
2022/06/08 01:11:46;;;;;;;34.25;20.63;;;;;;;;;;5013852;28;92726;-70
2022/06/08 01:14:16;;;;;;;29.67;18.85;;;;;;;;;;5014963;28;92993;-70
2022/06/08 01:16:52;;;;;;;27.45;20.42;;;;;;;;;;5014278;28;93144;-70
2022/06/08 01:19:20;;;;;;;29.98;20.83;;;;;;;;;;5014445;28;92485;-70
2022/06/08 01:21:51;;;;;;;30.55;20.65;;;;;;;;;;5015170;28;93981;-70
2022/06/08 01:24:24;;;;;;;27.25;20.60;;;;;;;;;;5013711;28;93255;-70
2022/06/08 01:27:01;;;;;;;30.00;19.70;;;;;;;;;;5017145;28;91850;-70
2022/06/08 01:29:31;;;;;;;30.55;20.25;;;;;;;;;;5013345;28;96008;-70
2022/06/08 01:32:04;;;;;;;29.02;19.30;;;;;;;;;;5014080;28;93506;-70
2022/06/08 01:34:30;;;;;;;;;;;;;;;;;;5014038;28;94880;-70
2022/06/08 01:36:59;;;;;;;25.63;19.45;;;;;;;;;;5008504;28;124891;-70
2022/06/08 01:39:45;;;;;;;27.80;19.45;;;;;;;;;;5013802;28;92627;-70
2022/06/08 01:42:35;;;;;;;29.48;20.10;;;;;;;;;;5013220;28;95947;-70
2022/06/08 01:45:28;;;;;;;27.02;18.83;;;;;;;;;;5012047;28;95446;-70
2022/06/08 01:48:13;;;;;;;32.78;20.23;;;;;;;;;;5014878;28;92523;-70
2022/06/08 01:50:43;;;;;;;32.17;19.65;;;;;;;;;;5016171;28;93417;-70
2022/06/08 01:53:30;;;;;;;24.85;19.23;;;;;;;;;;5013416;28;92162;-70
2022/06/08 01:56:07;;;;;;;29.75;18.85;;;;;;;;;;5013072;28;94180;-70
2022/06/08 01:58:40;;;;;;;29.55;19.70;;;;;;;;;;5011805;28;95450;-70
2022/06/08 02:01:25;;;;;;;28.77;20.70;;;;;;;;;;5011924;28;95031;-70
2022/06/08 02:04:09;;;;;;;32.15;20.08;;;;;;;;;;5012237;28;97203;-70
2022/06/08 02:06:43;;;;;;;27.50;19.83;;;;;;;;;;5012437;28;95446;-70
2022/06/08 02:09:16;;;;;;;34.40;18.57;;;;;;;;;;5013255;28;92571;-70
2022/06/08 02:11:55;;;;;;;29.10;19.52;;;;;;;;;;5018371;28;93958;-70
2022/06/08 02:14:31;;;;;;;30.35;19.42;;;;;;;;;;5015214;28;94181;-70
2022/06/08 02:17:08;;;;;;;31.73;19.85;;;;;;;;;;5012942;28;95367;-70
2022/06/08 02:19:39;;;;;;;30.15;21.90;;;;;;;;;;5013867;28;93268;-70
2022/06/08 02:22:19;;;;;;;28.80;19.30;;;;;;;;;;5013306;28;92651;-70
2022/06/08 02:25:02;;;;;;;36.42;22.67;;;;;;;;;;5041590;27;93866;-70
2022/06/08 02:27:32;;;;;;;32.17;21.77;;;;;;;;;;5033470;27;98329;-70
2022/06/08 02:30:03;;;;;;;34.75;22.27;;;;;;;;;;5013029;28;92501;-70
2022/06/08 02:35:23;;;;;;;33.22;22.75;;;;;;;;;;5013704;28;93268;-70
2022/06/08 02:37:52;;;;;;;32.95;22.45;;;;;;;;;;5015493;28;92659;-70
2022/06/08 02:40:21;;;;;;;34.55;23.05;;;;;;;;;;5013454;28;93036;-70
2022/06/08 02:42:52;;;;;;;34.55;23.25;;;;;;;;;;5012484;28;92616;-70
2022/06/08 02:45:25;;;;;;;34.97;21.58;;;;;;;;;;5014800;28;95744;-70
2022/06/08 02:47:54;;;;;;;36.05;23.65;;;;;;;;;;5011746;28;93014;-70
2022/06/08 02:50:22;;;;;;;40.05;22.85;;;;;;;;;;5012871;28;93144;-70
2022/06/08 02:52:50;;;;;;;34.92;21.85;;;;;;;;;;5010704;28;94910;-70
2022/06/08 02:55:24;;;;;;;38.75;22.70;;;;;;;;;;5011728;28;95607;-70
2022/06/08 02:57:53;;;;;;;39.00;23.70;;;;;;;;;;5015350;28;94005;-70
2022/06/08 03:00:24;;;;;;;37.47;23.73;;;;;;;;;;5013523;28;94066;-70
2022/06/08 03:02:57;;;;;;;36.47;23.10;;;;;;;;;;5013170;28;92930;-70
2022/06/08 03:05:39;;;;;;;41.92;22.70;;;;;;;;;;5004764;28;95306;-70
2022/06/08 03:08:19;;;;;;;39.42;23.65;;;;;;;;;;5012057;28;94192;-70
2022/06/08 03:10:47;;;;;;;43.65;25.48;;;;;;;;;;5011132;28;91811;-70
2022/06/08 03:13:26;;;;;;;37.42;24.92;;;;;;;;;;5012100;28;94888;-70
2022/06/08 03:15:54;;;;;;;34.72;23.25;;;;;;;;;;5011034;28;95309;-70
2022/06/08 03:18:21;;;;;;;33.40;23.17;;;;;;;;;;5011869;28;94872;-70
2022/06/08 03:20:49;;;;;;;38.90;24.65;;;;;;;;;;5016218;28;95334;-70
2022/06/08 03:23:19;;;;;;;39.93;25.10;;;;;;;;;;5010734;28;92916;-70
2022/06/08 03:25:46;;;;;;;33.17;23.33;;;;;;;;;;5002413;28;94945;-70
2022/06/08 03:28:14;;;;;;;39.38;24.83;;;;;;;;;;5003715;28;96079;-71
2022/06/08 03:30:42;;;;;;;33.35;25.05;;;;;;;;;;5009950;28;92987;-70
2022/06/08 03:33:10;;;;;;;34.35;24.63;;;;;;;;;;5011957;28;94863;-70
2022/06/08 03:35:37;;;;;;;39.60;25.92;;;;;;;;;;5012699;28;93527;-70
2022/06/08 03:38:04;;;;;;;41.85;25.55;;;;;;;;;;5010408;28;93431;-70
2022/06/08 03:40:33;;;;;;;47.53;28.13;;;;;;;;;;5011365;28;95349;-70
2022/06/08 03:43:00;;;;;;;44.45;27.02;;;;;;;;;;5014637;28;95994;-70
2022/06/08 03:45:28;;;;;;;34.85;25.58;;;;;;;;;;5010661;28;97657;-70
2022/06/08 03:47:54;;;;;;;35.50;25.77;;;;;;;;;;5012871;28;93497;-70
2022/06/08 03:50:23;;;;;;;39.80;26.33;;;;;;;;;;5011579;28;93379;-70
2022/06/08 03:52:56;;;;;;;36.47;26.50;;;;;;;;;;5012346;28;94019;-70
2022/06/08 03:55:24;;;;;;;42.47;29.05;;;;;;;;;;5011655;28;93173;-71
2022/06/08 03:57:50;;;;;;;43.28;28.55;;;;;;;;;;5010410;28;92757;-71
2022/06/08 04:00:19;;;;;;;36.72;25.77;;;;;;;;;;5011935;28;97433;-72
2022/06/08 04:02:58;;;;;;;36.17;26.52;;;;;;;;;;5011254;28;93285;-72
2022/06/08 04:05:30;;;;;;;;;;;;;;;;;;5015095;28;93221;-72
2022/06/08 04:07:57;;;;;;;37.00;26.38;;;;;;;;;;5011740;28;96525;-71
2022/06/08 04:10:24;;;;;;;38.38;27.05;;;;;;;;;;5011984;28;92568;-70
2022/06/08 04:12:55;;;;;;;36.17;27.40;;;;;;;;;;5009735;28;95230;-70
2022/06/08 04:15:42;;;;;;;41.03;28.35;;;;;;;;;;5010945;28;95108;-70
2022/06/08 04:18:17;;;;;;;36.13;27.70;;;;;;;;;;5011124;28;92597;-70
2022/06/08 04:20:46;;;;;;;40.60;29.63;;;;;;;;;;5010196;28;95479;-70
2022/06/08 04:23:13;;;;;;;33.60;26.65;;;;;;;;;;5011234;28;93151;-70
2022/06/08 04:25:42;;;;;;;37.45;29.60;;;;;;;;;;5010855;28;92570;-70
2022/06/08 04:28:10;;;;;;;44.25;30.23;;;;;;;;;;5013531;28;95009;-70
2022/06/08 04:30:37;;;;;;;42.38;30.45;;;;;;;;;;5010806;28;92451;-70
2022/06/08 04:33:04;;;;;;;37.42;28.83;;;;;;;;;;5008778;28;94908;-70
2022/06/08 04:35:32;;;;;;;33.83;25.40;;;;;;;;;;5010792;28;94174;-69
2022/06/08 04:37:59;;;;;;;31.02;25.33;;;;;;;;;;5011202;28;92506;-71
2022/06/08 04:40:26;;;;;;;38.42;27.95;;;;;;;;;;5011410;28;94266;-71
2022/06/08 04:42:53;;;;;;;38.35;29.55;;;;;;;;;;5011367;28;95940;-71
2022/06/08 04:45:21;;;;;;;37.30;27.88;;;;;;;;;;5011014;28;92928;-71
2022/06/08 04:47:48;;;;;;;35.30;28.00;;;;;;;;;;5009662;28;94872;-71
2022/06/08 04:50:16;;;;;;;29.48;25.50;;;;;;;;;;5014520;28;92687;-71
2022/06/08 04:52:43;;;;;;;31.60;26.30;;;;;;;;;;5010394;28;94449;-71
2022/06/08 04:55:11;;;;;;;29.30;25.42;;;;;;;;;;5009210;28;95371;-71
2022/06/08 04:57:39;;;;;;;30.92;24.67;;;;;;;;;;5008096;28;95361;-71
2022/06/08 05:00:08;;;;;;;30.42;25.13;;;;;;;;;;5012601;28;95224;-71
2022/06/08 05:02:45;;;;;;;27.60;23.33;;;;;;;;;;5010821;28;93073;-71
2022/06/08 05:05:34;;;;;;;30.23;24.48;;;;;;;;;;5004034;28;92498;-71
2022/06/08 05:08:03;;;;;;;30.48;25.05;;;;;;;;;;5009833;28;92993;-71
2022/06/08 05:10:32;;;;;;;30.30;23.95;;;;;;;;;;5043388;27;95811;-71
2022/06/08 05:13:00;;;;;;;27.67;22.95;;;;;;;;;;5024371;27;95696;-71
2022/06/08 05:15:31;;;;;;;26.85;22.92;;;;;;;;;;5009216;28;94658;-71
2022/06/08 05:18:01;;;;;;;24.75;22.35;;;;;;;;;;5012605;28;92574;-71
2022/06/08 05:20:28;;;;;;;23.58;21.10;;;;;;;;;;5010301;28;93053;-71
2022/06/08 05:22:56;;;;;;;24.63;21.27;;;;;;;;;;5008057;28;97553;-71
2022/06/08 05:25:30;;;;;;;23.63;21.10;;;;;;;;;;5009673;28;93198;-71
2022/06/08 05:27:56;;;;;;;24.73;21.77;;;;;;;;;;5005231;28;93003;-71
2022/06/08 05:30:28;;;;;;;27.48;20.48;;;;;;;;;;5008119;28;94943;-71
2022/06/08 05:32:55;;;;;;;23.63;20.95;;;;;;;;;;5005432;28;93072;-71
2022/06/08 05:35:24;;;;;;;22.73;20.33;;;;;;;;;;5013641;28;93299;-71
2022/06/08 05:37:51;;;;;;;22.02;19.67;;;;;;;;;;5012735;28;93301;-71
2022/06/08 05:40:22;;;;;;;24.15;20.20;;;;;;;;;;5013927;28;94782;-71
2022/06/08 05:42:49;;;;;;;20.05;17.92;;;;;;;;;;5013329;28;94065;-71
2022/06/08 05:45:17;;;;;;;21.10;18.92;;;;;;;;;;5012626;28;92869;-71
2022/06/08 05:47:46;;;;;;;21.70;19.50;;;;;;;;;;5006681;28;95592;-71
2022/06/08 05:50:16;;;;;;;25.23;19.63;;;;;;;;;;5012581;28;92533;-71
2022/06/08 05:52:46;;;;;;;19.80;17.67;;;;;;;;;;5013873;28;92908;-71
2022/06/08 05:55:14;;;;;;;20.25;16.55;;;;;;;;;;5016378;28;92514;-71
2022/06/08 05:57:41;;;;;;;19.15;17.35;;;;;;;;;;5013552;28;92459;-71
2022/06/08 06:00:10;;;;;;;18.65;16.00;;;;;;;;;;5013401;28;92635;-71
2022/06/08 06:02:39;;;;;;;19.80;16.67;;;;;;;;;;5010363;28;92678;-72
2022/06/08 06:05:07;;;;;;;17.42;15.80;;;;;;;;;;5000535;28;91830;-71
2022/06/08 06:07:34;;;;;;;18.30;16.25;;;;;;;;;;5013712;28;93354;-71
2022/06/08 06:10:19;;;;;;;15.68;13.88;;;;;;;;;;5005141;28;92674;-71
2022/06/08 06:12:46;;;;;;;19.52;15.80;;;;;;;;;;5031151;27;95172;-71
2022/06/08 06:15:13;;;;;;;17.48;15.32;;;;;;;;;;5035348;27;95364;-71
2022/06/08 06:17:43;;;;;;;19.90;15.45;;;;;;;;;;5002451;28;92675;-71
2022/06/08 06:20:09;;;;;;;17.27;15.45;;;;;;;;;;5012531;28;94842;-72
2022/06/08 06:22:51;;;;;;;15.55;14.25;;;;;;;;;;5012425;28;94939;-71
2022/06/08 06:25:35;;;;;;;15.98;14.38;;;;;;;;;;5012122;28;92479;-71
2022/06/08 06:28:22;;;;;;;14.93;13.18;;;;;;;;;;5003160;28;93928;-71
2022/06/08 06:31:08;;;;;;;15.07;13.77;;;;;;;;;;5006495;28;92915;-71
2022/06/08 06:33:47;;;;;;;18.80;14.00;;;;;;;;;;5012034;28;92758;-71
2022/06/08 06:36:14;;;;;;;14.05;12.10;;;;;;;;;;5012899;28;94290;-71
2022/06/08 06:38:40;;;;;;;14.18;12.05;;;;;;;;;;5011912;28;96524;-71
2022/06/08 06:41:09;;;;;;;14.63;12.55;;;;;;;;;;5015026;28;93540;-71
2022/06/08 06:43:35;;;;;;;13.40;12.00;;;;;;;;;;5014593;28;92994;-72
2022/06/08 06:46:34;;;;;;;13.15;12.02;;;;;;;;;;4995726;28;92476;-72
2022/06/08 06:49:05;;;;;;;12.90;11.53;;;;;;;;;;5007973;28;92944;-72
2022/06/08 06:51:34;;;;;;;12.70;11.50;;;;;;;;;;5001507;28;93412;-71
2022/06/08 06:54:04;;;;;;;11.45;10.27;;;;;;;;;;5008370;28;93041;-72
2022/06/08 06:56:34;;;;;;;9.77;8.98;;;;;;;;;;4999443;28;93903;-70
2022/06/08 06:59:05;;;;;;;12.20;9.40;;;;;;;;;;5002152;28;95323;-72
2022/06/08 07:01:34;;;;;;;7.45;6.72;;;;;;;;;;5012726;28;93081;-70
2022/06/08 07:04:01;;;;;;;10.00;9.00;;;;;;;;;;5011919;28;96749;-70
2022/06/08 07:06:29;;;;;;;10.50;9.23;;;;;;;;;;5005322;28;92524;-70
2022/06/08 07:09:00;;;;;;;8.75;7.82;;;;;;;;;;5008033;28;92958;-70
2022/06/08 07:11:35;;;;;;;9.05;7.65;;;;;;;;;;5010762;28;93125;-70
2022/06/08 07:14:12;;;;;;;7.32;6.70;;;;;;;;;;5010408;28;93153;-70
2022/06/08 07:16:38;;;;;;;7.05;6.53;;;;;;;;;;4997237;28;95304;-70
2022/06/08 07:19:06;;;;;;;11.23;5.97;;;;;;;;;;4997792;28;95282;-70
2022/06/08 07:21:33;;;;;;;5.20;4.80;;;;;;;;;;5012235;28;91855;-70
2022/06/08 07:23:59;;;;;;;5.55;5.05;;;;;;;;;;5015289;28;93635;-70
2022/06/08 07:26:33;;;;;;;6.80;4.82;;;;;;;;;;5017063;28;92435;-70
2022/06/08 07:29:02;;;;;;;6.10;5.18;;;;;;;;;;5011845;28;94895;-69
2022/06/08 07:31:29;;;;;;;5.20;4.82;;;;;;;;;;5013633;28;94442;-70
2022/06/08 07:33:55;;;;;;;5.05;4.68;;;;;;;;;;5013884;28;92471;-70
2022/06/08 07:36:21;;;;;;;7.15;4.90;;;;;;;;;;5013459;28;93992;-70
2022/06/08 07:38:48;;;;;;;7.10;4.72;;;;;;;;;;5013158;28;94152;-69
2022/06/08 07:41:15;;;;;;;5.25;4.85;;;;;;;;;;5013357;28;92548;-70
2022/06/08 07:43:42;;;;;;;6.45;4.50;;;;;;;;;;5009340;28;99560;-69
2022/06/08 07:46:09;;;;;;;7.93;4.55;;;;;;;;;;5007411;28;99396;-70
2022/06/08 07:51:21;;;;;;;7.22;4.72;;;;;;;;;;5007955;28;100088;-70
2022/06/08 07:53:49;;;;;;;5.47;4.97;;;;;;;;;;5009084;28;99271;-70
2022/06/08 07:56:16;;;;;;;5.78;5.07;;;;;;;;;;5008762;28;100235;-70
2022/06/08 07:58:42;;;;;;;5.22;4.82;;;;;;;;;;5007841;28;99514;-70
2022/06/08 08:01:11;;;;;;;4.95;4.45;;;;;;;;;;5009270;28;98625;-70
2022/06/08 08:03:38;;;;;;;7.25;4.80;;;;;;;;;;5001192;28;100180;-69
2022/06/08 08:06:07;;;;;;;6.25;4.80;;;;;;;;;;5008086;28;99377;-69
2022/06/08 08:08:34;;;;;;;6.82;4.43;;;;;;;;;;5012298;28;98554;-69
2022/06/08 08:11:00;;;;;;;6.35;4.40;;;;;;;;;;5008744;28;99138;-70
2022/06/08 08:13:26;;;;;;;5.05;4.55;;;;;;;;;;5009392;28;98710;-70
2022/06/08 08:15:53;;;;;;;12.88;5.30;;;;;;;;;;5009393;28;100141;-70
2022/06/08 08:18:19;;;;;;;4.70;4.30;;;;;;;;;;4991970;28;101307;-69
2022/06/08 08:20:46;;;;;;;6.07;4.40;;;;;;;;;;5007812;28;98959;-70
2022/06/08 08:23:13;;;;;;;9.77;4.75;;;;;;;;;;5009412;28;99599;-69
2022/06/08 08:25:39;;;;;;;6.75;4.47;;;;;;;;;;5007228;28;100020;-70
2022/06/08 08:28:07;;;;;;;11.93;4.15;;;;;;;;;;5009217;28;98525;-70
2022/06/08 08:30:34;;;;;;;6.65;4.70;;;;;;;;;;5011844;28;100006;-71
2022/06/08 08:33:01;;;;;;;8.57;4.82;;;;;;;;;;5008431;28;98972;-72
2022/06/08 08:35:27;;;;;;;5.97;4.95;;;;;;;;;;5002450;28;98954;-72
2022/06/08 08:37:55;;;;;;;4.75;4.35;;;;;;;;;;5006971;28;100232;-72
2022/06/08 08:40:41;;;;;;;5.75;4.15;;;;;;;;;;5008396;28;98966;-72
2022/06/08 08:43:09;;;;;;;6.80;3.92;;;;;;;;;;5000157;28;99871;-72
2022/06/08 08:45:42;;;;;;;4.55;3.50;;;;;;;;;;5007644;28;99802;-73
2022/06/08 08:48:22;;;;;;;8.63;3.90;;;;;;;;;;5007964;28;98613;-70
2022/06/08 08:50:53;;;;;;;8.20;3.70;;;;;;;;;;5008379;28;100065;-71
2022/06/08 08:53:30;;;;;;;3.33;3.03;;;;;;;;;;5005666;28;99266;-72
2022/06/08 08:55:58;;;;;;;5.80;3.65;;;;;;;;;;5008550;28;100159;-71
2022/06/08 08:58:33;;;;;;;5.10;3.33;;;;;;;;;;5008870;28;100120;-72
2022/06/08 09:01:00;;;;;;;4.38;3.17;;;;;;;;;;5017712;28;97874;-71
2022/06/08 09:03:54;;;;;;;3.92;2.83;;;;;;;;;;5008668;28;99297;-71
2022/06/08 09:06:23;;;;;;;7.75;3.20;;;;;;;;;;5000666;28;100837;-71
2022/06/08 09:08:52;;;;;;;8.00;3.38;;;;;;;;;;5007758;28;100038;-71
2022/06/08 09:11:27;;;;;;;3.70;2.83;;;;;;;;;;5004110;28;99905;-71
2022/06/08 09:13:56;;;;;;;2.80;2.60;;;;;;;;;;5011642;28;99454;-73
2022/06/08 09:16:36;;;;;;;8.00;3.30;;;;;;;;;;5014224;28;98947;-70
2022/06/08 09:19:25;;;;;;;9.23;3.97;;;;;;;;;;5001407;28;100145;-70
2022/06/08 09:21:53;;;;;;;4.40;3.35;;;;;;;;;;5006877;28;98514;-70
2022/06/08 09:24:38;;;;;;;4.90;3.80;;;;;;;;;;5007481;28;100400;-71
2022/06/08 09:27:11;;;;;;;7.43;3.38;;;;;;;;;;5007039;28;99488;-70
2022/06/08 09:29:47;;;;;;;3.38;3.13;;;;;;;;;;4999706;28;98585;-70
2022/06/08 09:32:34;;;;;;;7.18;3.58;;;;;;;;;;5001437;28;100250;-70
2022/06/08 09:35:15;;;;;;;7.35;3.28;;;;;;;;;;4998337;28;101461;-71
2022/06/08 09:37:44;;;;;;;6.50;3.22;;;;;;;;;;5007830;28;98573;-71
2022/06/08 09:40:36;;;;;;;5.18;3.38;;;;;;;;;;5002967;28;99494;-71
2022/06/08 09:43:24;;;;;;;6.47;3.38;;;;;;;;;;5006831;28;99026;-71
2022/06/08 09:45:52;;;;;;;6.60;2.67;;;;;;;;;;4992588;28;100069;-70
2022/06/08 09:51:28;;;;;;;4.45;2.78;;;;;;;;;;5011107;28;98675;-70
2022/06/08 09:54:15;;;;;;;5.90;3.08;;;;;;;;;;4998500;28;97822;-71
2022/06/08 09:56:54;;;;;;;4.75;2.88;;;;;;;;;;4998793;28;100470;-71
2022/06/08 09:59:38;;;;;;;5.13;3.15;;;;;;;;;;5008441;28;98607;-71
2022/06/08 10:02:24;;;;;;;6.22;2.92;;;;;;;;;;5014375;28;100406;-71
2022/06/08 10:05:08;;;;;;;6.47;2.95;;;;;;;;;;5003741;28;98921;-71
2022/06/08 10:07:46;;;;;;;5.68;3.10;;;;;;;;;;5010544;28;98908;-71
2022/06/08 10:10:17;;;;;;;9.98;2.90;;;;;;;;;;5010570;28;99200;-71
2022/06/08 10:12:57;;;;;;;11.90;3.53;;;;;;;;;;5010069;28;98938;-70
2022/06/08 10:15:42;;;;;;;7.35;3.25;;;;;;;;;;5011543;28;98864;-71
2022/06/08 10:18:19;;;;;;;8.73;3.17;;;;;;;;;;5003841;28;100718;-70
2022/06/08 10:20:50;;;;;;;7.65;3.17;;;;;;;;;;4998563;28;97835;-70
2022/06/08 10:23:25;;;;;;;5.13;3.17;;;;;;;;;;5006056;28;98583;-70
2022/06/08 10:26:11;;;;;;;3.22;2.60;;;;;;;;;;4997240;28;100161;-70
2022/06/08 10:28:44;;;;;;;5.68;3.20;;;;;;;;;;5010404;28;100183;-70
2022/06/08 10:31:18;;;;;;;11.52;2.75;;;;;;;;;;5006789;28;99121;-70
2022/06/08 10:33:45;;;;;;;14.05;3.17;;;;;;;;;;5006797;28;99263;-70
2022/06/08 10:36:12;;;;;;;9.52;2.47;;;;;;;;;;5001596;28;101026;-70
2022/06/08 10:38:43;;;;;;;2.88;2.15;;;;;;;;;;4997100;28;100789;-70
2022/06/08 10:42:39;;;;;;;9.20;2.75;;;;;;;;;;5010892;28;99033;-70
2022/06/08 10:43:57;;;;;;;6.68;2.22;;;;;;;;;;5010618;28;99976;-70
2022/06/08 10:46:27;;;;;;;9.05;2.28;;;;;;;;;;5002481;28;99305;-70
2022/06/08 10:48:53;;;;;;;6.55;2.40;;;;;;;;;;4999467;28;99693;-69
2022/06/08 10:51:21;;;;;;;9.60;2.40;;;;;;;;;;4991844;28;100966;-68
2022/06/08 10:56:55;;;;;;;6.72;2.45;;;;;;;;;;4996887;28;100936;-68
2022/06/08 10:59:24;;;;;;;5.40;1.75;;;;;;;;;;5001576;28;100234;-68
2022/06/08 11:01:53;;;;;;;5.05;2.08;;;;;;;;;;5000040;28;100241;-68
2022/06/08 11:04:29;;;;;;;7.95;2.40;;;;;;;;;;5005746;28;100400;-68
2022/06/08 11:06:59;;;;;;;5.82;1.90;;;;;;;;;;5004552;28;100773;-69
2022/06/08 11:09:35;;;;;;;9.25;2.17;;;;;;;;;;5002241;28;98723;-69
2022/06/08 11:12:15;;;;;;;6.22;2.10;;;;;;;;;;5010042;28;99073;-69
2022/06/08 11:14:48;;;;;;;5.25;2.20;;;;;;;;;;4995664;28;99482;-68
2022/06/08 11:17:24;;;;;;;10.43;2.33;;;;;;;;;;5003545;28;99960;-69
2022/06/08 11:19:53;;;;;;;10.38;2.75;;;;;;;;;;5003882;28;101110;-68
2022/06/08 11:22:29;;;;;;;4.80;2.08;;;;;;;;;;4996245;28;98543;-69
2022/06/08 11:24:58;;;;;;;7.68;2.15;;;;;;;;;;5008558;28;100072;-68
2022/06/08 11:27:32;;;;;;;7.10;2.00;;;;;;;;;;4996803;28;99149;-68
2022/06/08 11:30:01;;;;;;;8.73;2.03;;;;;;;;;;4994390;28;100488;-69
2022/06/08 11:32:33;;;;;;;7.00;2.60;;;;;;;;;;5005954;28;99770;-69
2022/06/08 11:35:07;;;;;;;8.98;1.88;;;;;;;;;;5004558;28;98710;-68
2022/06/08 11:37:47;;;;;;;8.10;2.22;;;;;;;;;;4997449;28;99293;-68
2022/06/08 11:40:14;;;;;;;8.80;3.05;;;;;;;;;;4999994;28;99634;-68
2022/06/08 11:42:51;;;;;;;7.35;2.30;;;;;;;;;;5001009;28;99057;-68
2022/06/08 11:45:21;;;;;;;7.90;1.95;;;;;;;;;;5001407;28;99353;-69
2022/06/08 11:48:06;;;;;;;6.40;2.35;;;;;;;;;;4994492;28;99378;-69
2022/06/08 11:50:41;;;;;;;7.00;2.33;;;;;;;;;;5000124;28;98725;-69
2022/06/08 11:53:28;;;;;;;8.82;2.28;;;;;;;;;;5008230;28;100883;-69
2022/06/08 11:56:09;;;;;;;5.68;2.15;;;;;;;;;;5000864;28;100592;-69
2022/06/08 11:58:36;;;;;;;9.93;2.53;;;;;;;;;;4991364;28;100096;-69
2022/06/08 12:01:14;;;;;;;6.60;2.47;;;;;;;;;;5008165;28;101825;-69
2022/06/08 12:03:42;;;;;;;4.20;1.90;;;;;;;;;;4996131;28;97975;-69
2022/06/08 12:06:24;;;;;;;7.22;2.38;;;;;;;;;;5006099;28;99210;-69
2022/06/08 12:08:52;;;;;;;7.80;2.20;;;;;;;;;;5000957;28;99486;-70
2022/06/08 12:11:21;;;;;;;5.65;2.97;;;;;;;;;;5008158;28;101193;-69
2022/06/08 12:14:10;;;;;;;6.43;2.50;;;;;;;;;;5009077;28;100609;-69
2022/06/08 12:16:55;;;;;;;7.20;2.58;;;;;;;;;;4999255;28;101757;-69
2022/06/08 12:19:22;;;;;;;5.78;2.85;;;;;;;;;;5006240;28;98520;-69
2022/06/08 12:22:05;;;;;;;8.02;2.70;;;;;;;;;;5004721;28;99485;-73
2022/06/08 12:24:33;;;;;;;6.35;2.75;;;;;;;;;;4998638;28;99660;-69
2022/06/08 12:27:00;;;;;;;5.75;2.70;;;;;;;;;;4995881;28;98911;-69
2022/06/08 12:29:29;;;;;;;8.50;3.30;;;;;;;;;;4998451;28;99561;-70
2022/06/08 12:32:05;;;;;;;13.02;3.28;;;;;;;;;;4991600;28;99038;-69
2022/06/08 12:34:34;;;;;;;4.53;3.17;;;;;;;;;;5000052;28;99788;-69
2022/06/08 12:37:19;;;;;;;6.65;3.42;;;;;;;;;;4993192;28;101083;-71
2022/06/08 12:39:45;;;;;;;8.93;3.35;;;;;;;;;;4994199;28;98633;-69
2022/06/08 12:42:23;;;;;;;9.23;3.75;;;;;;;;;;5011839;28;100195;-70
2022/06/08 12:44:51;;;;;;;8.77;3.92;;;;;;;;;;5005806;28;100105;-70
2022/06/08 12:47:18;;;;;;;9.02;3.45;;;;;;;;;;5005497;28;100000;-70
2022/06/08 12:49:50;;;;;;;8.77;3.00;;;;;;;;;;5006810;28;100112;-70
2022/06/08 12:52:21;;;;;;;10.32;3.45;;;;;;;;;;4992177;28;99126;-70
2022/06/08 12:54:48;;;;;;;9.65;3.60;;;;;;;;;;4998727;28;99892;-69
2022/06/08 12:57:16;;;;;;;8.10;3.75;;;;;;;;;;5008819;28;100408;-69
2022/06/08 12:59:44;;;;;;;8.20;4.00;;;;;;;;;;5006407;28;100103;-68
2022/06/08 13:02:14;;;;;;;8.20;4.05;;;;;;;;;;5002624;28;99248;-68
2022/06/08 13:04:41;;;;;;;16.00;3.80;;;;;;;;;;5001731;28;99237;-68
2022/06/08 13:07:19;;;;;;;8.18;4.03;;;;;;;;;;5000018;28;99077;-67
2022/06/08 13:09:47;;;;;;;9.75;4.30;;;;;;;;;;5001313;28;99860;-67
2022/06/08 13:12:17;;;;;;;7.85;3.55;;;;;;;;;;5000811;28;98579;-67
2022/06/08 13:14:44;;;;;;;7.90;3.60;;;;;;;;;;5006805;28;100103;-67
2022/06/08 13:17:11;;;;;;;8.40;3.33;;;;;;;;;;5007090;28;99724;-67
2022/06/08 13:19:38;;;;;;;8.75;3.65;;;;;;;;;;5003545;28;97794;-66
2022/06/08 13:22:05;;;;;;;7.95;3.20;;;;;;;;;;4997455;28;98644;-67
2022/06/08 13:24:32;;;;;;;5.05;2.83;;;;;;;;;;4999919;28;99747;-68
2022/06/08 13:27:00;;;;;;;8.27;2.70;;;;;;;;;;5011568;28;99268;-68
2022/06/08 13:29:26;;;;;;;4.75;2.55;;;;;;;;;;5005897;28;100271;-68
2022/06/08 13:31:53;;;;;;;7.35;2.40;;;;;;;;;;4999710;28;98658;-68
2022/06/08 13:34:20;;;;;;;4.93;2.20;;;;;;;;;;5008177;28;99002;-68
2022/06/08 13:36:57;;;;;;;3.60;2.30;;;;;;;;;;5006917;28;100375;-68
2022/06/08 13:39:32;;;;;;;3.20;1.73;;;;;;;;;;4991093;28;100135;-69
2022/06/08 13:42:13;;;;;;;4.72;2.20;;;;;;;;;;4999082;28;100460;-68
2022/06/08 13:44:42;;;;;;;4.88;2.10;;;;;;;;;;4988063;28;99227;-68
2022/06/08 13:47:16;;;;;;;3.95;1.75;;;;;;;;;;5003875;28;99686;-68
2022/06/08 13:49:48;;;;;;;2.30;2.10;;;;;;;;;;4998041;28;101007;-69
2022/06/08 13:52:19;;;;;;;6.53;2.17;;;;;;;;;;4996807;28;99538;-69
2022/06/08 13:54:47;;;;;;;5.53;1.92;;;;;;;;;;4998360;28;99922;-69
2022/06/08 13:57:15;;;;;;;6.80;2.10;;;;;;;;;;4999209;28;100699;-69
2022/06/08 13:59:43;;;;;;;4.30;2.13;;;;;;;;;;5002036;28;98922;-69
2022/06/08 14:02:36;;;;;;;2.92;2.13;;;;;;;;;;5001884;28;100116;-70
2022/06/08 14:05:03;;;;;;;3.63;1.92;;;;;;;;;;5006607;28;99858;-69
2022/06/08 14:13:15;;;;;;;9.95;2.15;;;;;;;;;;4991918;28;100011;-70
2022/06/08 14:15:42;;;;;;;4.72;2.10;;;;;;;;;;5003901;28;100105;-69
2022/06/08 14:18:14;;;;;;;3.25;2.20;;;;;;;;;;4993739;28;100781;-70
2022/06/08 14:20:40;;;;;;;4.43;1.93;;;;;;;;;;4994446;27;98783;-70
2022/06/08 14:23:09;;;;;;;2.60;2.03;;;;;;;;;;4996740;28;100169;-70
2022/06/08 14:25:37;;;;;;;3.75;2.22;;;;;;;;;;5003322;28;100396;-70
2022/06/08 14:28:04;;;;;;;3.28;2.05;;;;;;;;;;4996268;28;100425;-72
2022/06/08 14:30:30;;;;;;;2.38;2.17;;;;;;;;;;5001718;28;99304;-70
2022/06/08 14:32:59;;;;;;;6.82;2.63;;;;;;;;;;4996885;28;100967;-70
2022/06/08 14:35:32;;;;;;;3.90;2.42;;;;;;;;;;4994654;28;99892;-70
2022/06/08 14:38:29;;;;;;;5.00;2.10;;;;;;;;;;4998720;28;99275;-69
2022/06/08 14:40:56;;;;;;;3.13;2.10;;;;;;;;;;4990149;28;98975;-69
2022/06/08 14:43:22;;;;;;;2.08;1.80;;;;;;;;;;4998165;28;99952;-69
2022/06/08 14:45:49;;;;;;;1.88;1.77;;;;;;;;;;4996971;28;100263;-70
2022/06/08 14:48:20;;;;;;;2.05;1.88;;;;;;;;;;5006400;28;99814;-70
2022/06/08 14:50:48;;;;;;;2.50;1.80;;;;;;;;;;4993113;28;99422;-71
2022/06/08 14:53:15;;;;;;;2.85;2.15;;;;;;;;;;4984599;28;99303;-71
2022/06/08 14:58:27;;;;;;;1.73;1.63;;;;;;;;;;4990627;28;100166;-71
2022/06/08 15:00:54;;;;;;;1.77;1.48;;;;;;;;;;4990500;28;99312;-70
2022/06/08 15:03:22;;;;;;;1.35;1.35;;;;;;;;;;4995092;28;99320;-70
2022/06/08 15:05:49;;;;;;;1.70;1.60;;;;;;;;;;4988274;28;100232;-72
2022/06/08 15:08:19;;;;;;;2.63;1.67;;;;;;;;;;4988983;28;100209;-71
2022/06/08 15:13:31;;;;;;;3.58;1.85;;;;;;;;;;4987919;28;99445;-70
2022/06/08 15:16:00;;;;;;;2.75;1.63;;;;;;;;;;4993271;28;99285;-70